sensor_id;sensor_type;location;lat;lon;timestamp;P1;durP1;ratioP1;P2;durP2;ratioP2
4057;SDS011;2044;48.692;9.020;2023-02-19T00:02:00;4.40;;;2.63;;
4057;SDS011;2044;48.692;9.020;2023-02-19T00:04:27;4.30;;;2.40;;
4057;SDS011;2044;48.692;9.020;2023-02-19T00:06:55;3.60;;;2.73;;
4057;SDS011;2044;48.692;9.020;2023-02-19T00:09:25;4.53;;;2.30;;
4057;SDS011;2044;48.692;9.020;2023-02-19T00:11:56;2.47;;;2.27;;
4057;SDS011;2044;48.692;9.020;2023-02-19T00:14:23;4.40;;;2.23;;
4057;SDS011;2044;48.692;9.020;2023-02-19T00:16:50;1.77;;;1.67;;
4057;SDS011;2044;48.692;9.020;2023-02-19T00:19:19;2.27;;;1.80;;
4057;SDS011;2044;48.692;9.020;2023-02-19T00:21:47;1.40;;;1.30;;
4057;SDS011;2044;48.692;9.020;2023-02-19T00:24:20;3.00;;;2.13;;
4057;SDS011;2044;48.692;9.020;2023-02-19T00:26:51;4.17;;;2.30;;
4057;SDS011;2044;48.692;9.020;2023-02-19T00:29:19;2.87;;;2.40;;
4057;SDS011;2044;48.692;9.020;2023-02-19T00:31:49;2.00;;;1.83;;
4057;SDS011;2044;48.692;9.020;2023-02-19T00:34:16;1.83;;;1.73;;
4057;SDS011;2044;48.692;9.020;2023-02-19T00:36:44;1.67;;;1.43;;
4057;SDS011;2044;48.692;9.020;2023-02-19T00:39:13;2.20;;;1.97;;
4057;SDS011;2044;48.692;9.020;2023-02-19T00:41:42;1.97;;;1.50;;
4057;SDS011;2044;48.692;9.020;2023-02-19T00:44:11;2.03;;;1.30;;
4057;SDS011;2044;48.692;9.020;2023-02-19T00:46:40;1.87;;;1.70;;
4057;SDS011;2044;48.692;9.020;2023-02-19T00:49:10;3.10;;;1.80;;
4057;SDS011;2044;48.692;9.020;2023-02-19T00:51:40;2.50;;;1.60;;
4057;SDS011;2044;48.692;9.020;2023-02-19T00:54:09;1.20;;;1.10;;
4057;SDS011;2044;48.692;9.020;2023-02-19T00:56:36;1.37;;;1.27;;
4057;SDS011;2044;48.692;9.020;2023-02-19T00:59:04;1.97;;;1.73;;
4057;SDS011;2044;48.692;9.020;2023-02-19T01:01:32;2.33;;;1.57;;
4057;SDS011;2044;48.692;9.020;2023-02-19T01:04:00;4.00;;;1.70;;
4057;SDS011;2044;48.692;9.020;2023-02-19T01:06:27;1.80;;;1.53;;
4057;SDS011;2044;48.692;9.020;2023-02-19T01:08:57;2.43;;;1.57;;
4057;SDS011;2044;48.692;9.020;2023-02-19T01:11:27;1.70;;;1.60;;
4057;SDS011;2044;48.692;9.020;2023-02-19T01:13:55;3.90;;;3.60;;
4057;SDS011;2044;48.692;9.020;2023-02-19T01:16:23;3.37;;;2.30;;
4057;SDS011;2044;48.692;9.020;2023-02-19T01:18:52;1.90;;;1.63;;
4057;SDS011;2044;48.692;9.020;2023-02-19T01:21:23;2.93;;;1.80;;
4057;SDS011;2044;48.692;9.020;2023-02-19T01:23:55;3.57;;;2.03;;
4057;SDS011;2044;48.692;9.020;2023-02-19T01:26:23;2.10;;;1.53;;
4057;SDS011;2044;48.692;9.020;2023-02-19T01:28:52;1.97;;;1.73;;
4057;SDS011;2044;48.692;9.020;2023-02-19T01:31:19;1.87;;;1.57;;
4057;SDS011;2044;48.692;9.020;2023-02-19T01:33:48;2.00;;;1.80;;
4057;SDS011;2044;48.692;9.020;2023-02-19T01:36:19;2.07;;;1.67;;
4057;SDS011;2044;48.692;9.020;2023-02-19T01:38:46;2.73;;;1.60;;
4057;SDS011;2044;48.692;9.020;2023-02-19T01:41:16;2.43;;;1.90;;
4057;SDS011;2044;48.692;9.020;2023-02-19T01:43:56;1.90;;;1.70;;
4057;SDS011;2044;48.692;9.020;2023-02-19T01:46:48;2.13;;;1.37;;
4057;SDS011;2044;48.692;9.020;2023-02-19T01:49:30;2.60;;;1.87;;
4057;SDS011;2044;48.692;9.020;2023-02-19T01:52:01;1.70;;;1.60;;
4057;SDS011;2044;48.692;9.020;2023-02-19T01:54:31;1.53;;;1.43;;
4057;SDS011;2044;48.692;9.020;2023-02-19T01:57:03;1.53;;;1.43;;
4057;SDS011;2044;48.692;9.020;2023-02-19T01:59:36;3.90;;;1.90;;
4057;SDS011;2044;48.692;9.020;2023-02-19T02:02:14;2.23;;;2.00;;
4057;SDS011;2044;48.692;9.020;2023-02-19T02:04:43;4.13;;;1.97;;
4057;SDS011;2044;48.692;9.020;2023-02-19T02:07:16;2.63;;;2.20;;
4057;SDS011;2044;48.692;9.020;2023-02-19T02:10:02;3.10;;;2.40;;
4057;SDS011;2044;48.692;9.020;2023-02-19T02:12:51;4.90;;;2.30;;
4057;SDS011;2044;48.692;9.020;2023-02-19T02:15:28;3.20;;;2.30;;
4057;SDS011;2044;48.692;9.020;2023-02-19T02:18:05;2.20;;;1.70;;
4057;SDS011;2044;48.692;9.020;2023-02-19T02:20:46;2.40;;;2.20;;
4057;SDS011;2044;48.692;9.020;2023-02-19T02:23:37;1.97;;;1.87;;
4057;SDS011;2044;48.692;9.020;2023-02-19T02:26:24;2.30;;;2.20;;
4057;SDS011;2044;48.692;9.020;2023-02-19T02:31:54;2.33;;;2.13;;
4057;SDS011;2044;48.692;9.020;2023-02-19T02:34:29;2.20;;;1.73;;
4057;SDS011;2044;48.692;9.020;2023-02-19T02:37:04;3.17;;;2.17;;
4057;SDS011;2044;48.692;9.020;2023-02-19T02:39:32;2.27;;;2.00;;
4057;SDS011;2044;48.692;9.020;2023-02-19T02:42:01;2.43;;;1.90;;
4057;SDS011;2044;48.692;9.020;2023-02-19T02:44:46;2.10;;;1.90;;
4057;SDS011;2044;48.692;9.020;2023-02-19T02:47:32;2.20;;;2.00;;
4057;SDS011;2044;48.692;9.020;2023-02-19T02:50:06;2.03;;;1.93;;
4057;SDS011;2044;48.692;9.020;2023-02-19T02:52:37;3.40;;;2.37;;
4057;SDS011;2044;48.692;9.020;2023-02-19T02:55:29;2.33;;;2.10;;
4057;SDS011;2044;48.692;9.020;2023-02-19T02:58:02;2.83;;;2.60;;
4057;SDS011;2044;48.692;9.020;2023-02-19T03:00:30;3.70;;;2.30;;
4057;SDS011;2044;48.692;9.020;2023-02-19T03:03:26;2.80;;;2.00;;
4057;SDS011;2044;48.692;9.020;2023-02-19T03:05:57;4.33;;;1.90;;
4057;SDS011;2044;48.692;9.020;2023-02-19T03:08:32;2.80;;;1.90;;
4057;SDS011;2044;48.692;9.020;2023-02-19T03:11:03;1.90;;;1.63;;
4057;SDS011;2044;48.692;9.020;2023-02-19T03:13:46;1.97;;;1.77;;
4057;SDS011;2044;48.692;9.020;2023-02-19T03:16:32;2.63;;;2.10;;
4057;SDS011;2044;48.692;9.020;2023-02-19T03:19:21;3.23;;;2.00;;
4057;SDS011;2044;48.692;9.020;2023-02-19T03:21:53;1.80;;;1.70;;
4057;SDS011;2044;48.692;9.020;2023-02-19T03:24:23;1.57;;;1.47;;
4057;SDS011;2044;48.692;9.020;2023-02-19T03:27:11;1.83;;;1.50;;
4057;SDS011;2044;48.692;9.020;2023-02-19T03:29:39;2.93;;;2.00;;
4057;SDS011;2044;48.692;9.020;2023-02-19T03:32:09;1.67;;;1.20;;
4057;SDS011;2044;48.692;9.020;2023-02-19T03:34:41;1.63;;;1.47;;
4057;SDS011;2044;48.692;9.020;2023-02-19T03:37:14;1.60;;;1.40;;
4057;SDS011;2044;48.692;9.020;2023-02-19T03:39:49;1.37;;;1.20;;
4057;SDS011;2044;48.692;9.020;2023-02-19T03:42:26;1.43;;;1.27;;
4057;SDS011;2044;48.692;9.020;2023-02-19T03:45:10;1.50;;;1.30;;
4057;SDS011;2044;48.692;9.020;2023-02-19T03:47:48;1.20;;;1.10;;
4057;SDS011;2044;48.692;9.020;2023-02-19T03:50:22;0.80;;;0.80;;
4057;SDS011;2044;48.692;9.020;2023-02-19T03:52:55;1.63;;;1.10;;
4057;SDS011;2044;48.692;9.020;2023-02-19T03:55:29;1.20;;;0.90;;
4057;SDS011;2044;48.692;9.020;2023-02-19T03:58:03;1.23;;;1.00;;
4057;SDS011;2044;48.692;9.020;2023-02-19T04:00:34;1.03;;;0.80;;
4057;SDS011;2044;48.692;9.020;2023-02-19T04:03:10;1.10;;;1.00;;
4057;SDS011;2044;48.692;9.020;2023-02-19T04:05:45;0.60;;;0.60;;
4057;SDS011;2044;48.692;9.020;2023-02-19T04:08:16;1.83;;;0.93;;
4057;SDS011;2044;48.692;9.020;2023-02-19T04:10:45;1.00;;;0.70;;
4057;SDS011;2044;48.692;9.020;2023-02-19T04:13:15;1.00;;;0.90;;
4057;SDS011;2044;48.692;9.020;2023-02-19T04:15:47;0.70;;;0.70;;
4057;SDS011;2044;48.692;9.020;2023-02-19T04:21:08;0.73;;;0.60;;
4057;SDS011;2044;48.692;9.020;2023-02-19T04:23:37;1.03;;;0.70;;
4057;SDS011;2044;48.692;9.020;2023-02-19T04:26:06;0.80;;;0.70;;
4057;SDS011;2044;48.692;9.020;2023-02-19T04:28:34;1.53;;;0.60;;
4057;SDS011;2044;48.692;9.020;2023-02-19T04:31:01;1.27;;;0.70;;
4057;SDS011;2044;48.692;9.020;2023-02-19T04:33:33;0.90;;;0.63;;
4057;SDS011;2044;48.692;9.020;2023-02-19T04:36:02;0.63;;;0.50;;
4057;SDS011;2044;48.692;9.020;2023-02-19T04:38:42;0.60;;;0.50;;
4057;SDS011;2044;48.692;9.020;2023-02-19T04:41:09;0.60;;;0.50;;
4057;SDS011;2044;48.692;9.020;2023-02-19T04:43:38;0.70;;;0.40;;
4057;SDS011;2044;48.692;9.020;2023-02-19T04:46:05;0.60;;;0.50;;
4057;SDS011;2044;48.692;9.020;2023-02-19T04:48:33;0.80;;;0.60;;
4057;SDS011;2044;48.692;9.020;2023-02-19T04:51:03;1.93;;;0.50;;
4057;SDS011;2044;48.692;9.020;2023-02-19T04:53:30;0.60;;;0.50;;
4057;SDS011;2044;48.692;9.020;2023-02-19T04:56:04;0.60;;;0.47;;
4057;SDS011;2044;48.692;9.020;2023-02-19T04:58:33;0.70;;;0.50;;
4057;SDS011;2044;48.692;9.020;2023-02-19T05:01:00;0.90;;;0.40;;
4057;SDS011;2044;48.692;9.020;2023-02-19T05:03:27;0.60;;;0.50;;
4057;SDS011;2044;48.692;9.020;2023-02-19T05:05:53;0.60;;;0.50;;
4057;SDS011;2044;48.692;9.020;2023-02-19T05:08:20;0.60;;;0.50;;
4057;SDS011;2044;48.692;9.020;2023-02-19T05:10:48;0.50;;;0.40;;
4057;SDS011;2044;48.692;9.020;2023-02-19T05:13:16;0.70;;;0.50;;
4057;SDS011;2044;48.692;9.020;2023-02-19T05:15:52;1.03;;;0.50;;
4057;SDS011;2044;48.692;9.020;2023-02-19T05:18:21;0.70;;;0.50;;
4057;SDS011;2044;48.692;9.020;2023-02-19T05:20:49;0.70;;;0.50;;
4057;SDS011;2044;48.692;9.020;2023-02-19T05:23:18;0.60;;;0.50;;
4057;SDS011;2044;48.692;9.020;2023-02-19T05:25:47;0.50;;;0.40;;
4057;SDS011;2044;48.692;9.020;2023-02-19T05:28:25;0.60;;;0.50;;
4057;SDS011;2044;48.692;9.020;2023-02-19T05:30:54;0.60;;;0.50;;
4057;SDS011;2044;48.692;9.020;2023-02-19T05:33:22;1.53;;;0.50;;
4057;SDS011;2044;48.692;9.020;2023-02-19T05:35:51;0.60;;;0.40;;
4057;SDS011;2044;48.692;9.020;2023-02-19T05:38:20;0.60;;;0.43;;
4057;SDS011;2044;48.692;9.020;2023-02-19T05:40:52;0.60;;;0.50;;
4057;SDS011;2044;48.692;9.020;2023-02-19T05:43:18;0.60;;;0.43;;
4057;SDS011;2044;48.692;9.020;2023-02-19T05:45:46;0.50;;;0.40;;
4057;SDS011;2044;48.692;9.020;2023-02-19T05:48:13;0.60;;;0.50;;
4057;SDS011;2044;48.692;9.020;2023-02-19T05:50:40;0.60;;;0.40;;
4057;SDS011;2044;48.692;9.020;2023-02-19T05:53:08;0.60;;;0.40;;
4057;SDS011;2044;48.692;9.020;2023-02-19T05:55:35;0.50;;;0.40;;
4057;SDS011;2044;48.692;9.020;2023-02-19T05:58:03;0.50;;;0.40;;
4057;SDS011;2044;48.692;9.020;2023-02-19T06:00:42;0.60;;;0.43;;
4057;SDS011;2044;48.692;9.020;2023-02-19T06:03:12;0.50;;;0.40;;
4057;SDS011;2044;48.692;9.020;2023-02-19T06:05:42;0.50;;;0.40;;
4057;SDS011;2044;48.692;9.020;2023-02-19T06:08:09;0.50;;;0.30;;
4057;SDS011;2044;48.692;9.020;2023-02-19T06:10:37;0.50;;;0.40;;
4057;SDS011;2044;48.692;9.020;2023-02-19T06:13:05;0.50;;;0.40;;
4057;SDS011;2044;48.692;9.020;2023-02-19T06:15:32;0.60;;;0.40;;
4057;SDS011;2044;48.692;9.020;2023-02-19T06:17:59;0.60;;;0.40;;
4057;SDS011;2044;48.692;9.020;2023-02-19T06:20:28;0.50;;;0.40;;
4057;SDS011;2044;48.692;9.020;2023-02-19T06:22:55;0.50;;;0.40;;
4057;SDS011;2044;48.692;9.020;2023-02-19T06:25:22;0.60;;;0.50;;
4057;SDS011;2044;48.692;9.020;2023-02-19T06:27:49;0.50;;;0.50;;
4057;SDS011;2044;48.692;9.020;2023-02-19T06:30:17;0.60;;;0.60;;
4057;SDS011;2044;48.692;9.020;2023-02-19T06:32:55;0.70;;;0.50;;
4057;SDS011;2044;48.692;9.020;2023-02-19T06:35:22;0.60;;;0.50;;
4057;SDS011;2044;48.692;9.020;2023-02-19T06:37:50;0.80;;;0.53;;
4057;SDS011;2044;48.692;9.020;2023-02-19T06:40:17;0.80;;;0.50;;
4057;SDS011;2044;48.692;9.020;2023-02-19T06:42:44;0.60;;;0.50;;
4057;SDS011;2044;48.692;9.020;2023-02-19T06:45:11;0.60;;;0.50;;
4057;SDS011;2044;48.692;9.020;2023-02-19T06:47:38;0.70;;;0.53;;
4057;SDS011;2044;48.692;9.020;2023-02-19T06:50:05;0.60;;;0.50;;
4057;SDS011;2044;48.692;9.020;2023-02-19T06:52:32;0.70;;;0.60;;
4057;SDS011;2044;48.692;9.020;2023-02-19T06:55:08;0.80;;;0.50;;
4057;SDS011;2044;48.692;9.020;2023-02-19T06:57:35;0.60;;;0.50;;
4057;SDS011;2044;48.692;9.020;2023-02-19T07:00:04;0.60;;;0.60;;
4057;SDS011;2044;48.692;9.020;2023-02-19T07:02:42;0.60;;;0.60;;
4057;SDS011;2044;48.692;9.020;2023-02-19T07:05:12;0.60;;;0.60;;
4057;SDS011;2044;48.692;9.020;2023-02-19T07:07:44;0.60;;;0.50;;
4057;SDS011;2044;48.692;9.020;2023-02-19T07:10:14;0.60;;;0.50;;
4057;SDS011;2044;48.692;9.020;2023-02-19T07:12:41;0.60;;;0.60;;
4057;SDS011;2044;48.692;9.020;2023-02-19T07:15:08;0.60;;;0.60;;
4057;SDS011;2044;48.692;9.020;2023-02-19T07:17:35;0.60;;;0.50;;
4057;SDS011;2044;48.692;9.020;2023-02-19T07:20:02;0.60;;;0.50;;
4057;SDS011;2044;48.692;9.020;2023-02-19T07:22:31;0.70;;;0.50;;
4057;SDS011;2044;48.692;9.020;2023-02-19T07:24:58;0.60;;;0.60;;
4057;SDS011;2044;48.692;9.020;2023-02-19T07:27:26;0.70;;;0.60;;
4057;SDS011;2044;48.692;9.020;2023-02-19T07:29:53;0.70;;;0.67;;
4057;SDS011;2044;48.692;9.020;2023-02-19T07:32:21;0.80;;;0.73;;
4057;SDS011;2044;48.692;9.020;2023-02-19T07:34:48;0.90;;;0.60;;
4057;SDS011;2044;48.692;9.020;2023-02-19T07:37:15;1.77;;;0.80;;
4057;SDS011;2044;48.692;9.020;2023-02-19T07:39:42;0.80;;;0.70;;
4057;SDS011;2044;48.692;9.020;2023-02-19T07:42:09;0.80;;;0.80;;
4057;SDS011;2044;48.692;9.020;2023-02-19T07:44:38;1.47;;;1.20;;
4057;SDS011;2044;48.692;9.020;2023-02-19T07:47:04;1.00;;;0.80;;
4057;SDS011;2044;48.692;9.020;2023-02-19T07:49:31;1.20;;;0.90;;
4057;SDS011;2044;48.692;9.020;2023-02-19T07:51:59;1.23;;;0.97;;
4057;SDS011;2044;48.692;9.020;2023-02-19T07:54:28;1.30;;;0.90;;
4057;SDS011;2044;48.692;9.020;2023-02-19T07:56:55;0.90;;;0.90;;
4057;SDS011;2044;48.692;9.020;2023-02-19T07:59:22;1.00;;;1.00;;
4057;SDS011;2044;48.692;9.020;2023-02-19T08:01:50;1.20;;;0.90;;
4057;SDS011;2044;48.692;9.020;2023-02-19T08:04:35;0.93;;;0.83;;
4057;SDS011;2044;48.692;9.020;2023-02-19T08:07:02;1.30;;;1.20;;
4057;SDS011;2044;48.692;9.020;2023-02-19T08:09:30;2.13;;;1.33;;
4057;SDS011;2044;48.692;9.020;2023-02-19T08:11:56;1.20;;;0.90;;
4057;SDS011;2044;48.692;9.020;2023-02-19T08:14:41;1.00;;;0.90;;
4057;SDS011;2044;48.692;9.020;2023-02-19T08:17:09;0.80;;;0.60;;
4057;SDS011;2044;48.692;9.020;2023-02-19T08:19:36;1.37;;;0.80;;
4057;SDS011;2044;48.692;9.020;2023-02-19T08:22:03;0.80;;;0.80;;
4057;SDS011;2044;48.692;9.020;2023-02-19T08:24:30;2.77;;;0.97;;
4057;SDS011;2044;48.692;9.020;2023-02-19T08:26:57;0.97;;;0.87;;
4057;SDS011;2044;48.692;9.020;2023-02-19T08:29:26;0.80;;;0.70;;
4057;SDS011;2044;48.692;9.020;2023-02-19T08:31:52;0.73;;;0.70;;
4057;SDS011;2044;48.692;9.020;2023-02-19T08:34:23;0.73;;;0.70;;
4057;SDS011;2044;48.692;9.020;2023-02-19T08:36:50;0.70;;;0.67;;
4057;SDS011;2044;48.692;9.020;2023-02-19T08:39:16;1.20;;;0.70;;
4057;SDS011;2044;48.692;9.020;2023-02-19T08:41:44;1.03;;;0.80;;
4057;SDS011;2044;48.692;9.020;2023-02-19T08:44:11;0.80;;;0.70;;
4057;SDS011;2044;48.692;9.020;2023-02-19T08:46:38;0.70;;;0.70;;
4057;SDS011;2044;48.692;9.020;2023-02-19T08:49:05;0.70;;;0.60;;
4057;SDS011;2044;48.692;9.020;2023-02-19T08:51:33;0.93;;;0.60;;
4057;SDS011;2044;48.692;9.020;2023-02-19T08:54:00;0.80;;;0.70;;
4057;SDS011;2044;48.692;9.020;2023-02-19T08:56:28;0.70;;;0.60;;
4057;SDS011;2044;48.692;9.020;2023-02-19T08:58:55;0.60;;;0.60;;
4057;SDS011;2044;48.692;9.020;2023-02-19T09:01:22;1.17;;;0.80;;
4057;SDS011;2044;48.692;9.020;2023-02-19T09:03:52;0.70;;;0.60;;
4057;SDS011;2044;48.692;9.020;2023-02-19T09:06:19;1.13;;;0.90;;
4057;SDS011;2044;48.692;9.020;2023-02-19T09:08:47;1.37;;;0.93;;
4057;SDS011;2044;48.692;9.020;2023-02-19T09:11:14;0.90;;;0.77;;
4057;SDS011;2044;48.692;9.020;2023-02-19T09:13:42;0.80;;;0.80;;
4057;SDS011;2044;48.692;9.020;2023-02-19T09:16:09;1.10;;;1.00;;
4057;SDS011;2044;48.692;9.020;2023-02-19T09:18:36;1.60;;;0.90;;
4057;SDS011;2044;48.692;9.020;2023-02-19T09:21:04;1.63;;;1.17;;
4057;SDS011;2044;48.692;9.020;2023-02-19T09:23:33;1.30;;;1.20;;
4057;SDS011;2044;48.692;9.020;2023-02-19T09:26:03;1.40;;;1.20;;
4057;SDS011;2044;48.692;9.020;2023-02-19T09:28:34;1.53;;;1.17;;
4057;SDS011;2044;48.692;9.020;2023-02-19T09:31:02;3.60;;;1.30;;
4057;SDS011;2044;48.692;9.020;2023-02-19T09:33:30;1.20;;;1.10;;
4057;SDS011;2044;48.692;9.020;2023-02-19T09:35:57;1.27;;;1.10;;
4057;SDS011;2044;48.692;9.020;2023-02-19T09:38:24;1.10;;;1.00;;
4057;SDS011;2044;48.692;9.020;2023-02-19T09:40:51;1.50;;;1.10;;
4057;SDS011;2044;48.692;9.020;2023-02-19T09:43:20;2.00;;;0.90;;
4057;SDS011;2044;48.692;9.020;2023-02-19T09:45:48;1.80;;;1.00;;
4057;SDS011;2044;48.692;9.020;2023-02-19T09:48:26;2.77;;;1.60;;
4057;SDS011;2044;48.692;9.020;2023-02-19T09:50:53;1.63;;;1.23;;
4057;SDS011;2044;48.692;9.020;2023-02-19T09:53:21;1.10;;;0.90;;
4057;SDS011;2044;48.692;9.020;2023-02-19T09:55:54;0.90;;;0.90;;
4057;SDS011;2044;48.692;9.020;2023-02-19T09:58:23;1.30;;;1.20;;
4057;SDS011;2044;48.692;9.020;2023-02-19T10:00:54;1.33;;;1.00;;
4057;SDS011;2044;48.692;9.020;2023-02-19T10:03:23;1.87;;;1.20;;
4057;SDS011;2044;48.692;9.020;2023-02-19T10:05:55;1.17;;;1.07;;
4057;SDS011;2044;48.692;9.020;2023-02-19T10:08:24;1.37;;;1.00;;
4057;SDS011;2044;48.692;9.020;2023-02-19T10:10:51;1.17;;;1.00;;
4057;SDS011;2044;48.692;9.020;2023-02-19T10:13:24;3.37;;;1.37;;
4057;SDS011;2044;48.692;9.020;2023-02-19T10:15:57;1.43;;;0.73;;
4057;SDS011;2044;48.692;9.020;2023-02-19T10:18:25;1.43;;;0.97;;
4057;SDS011;2044;48.692;9.020;2023-02-19T10:20:56;1.90;;;0.93;;
4057;SDS011;2044;48.692;9.020;2023-02-19T10:23:23;1.57;;;0.90;;
4057;SDS011;2044;48.692;9.020;2023-02-19T10:25:52;5.40;;;1.10;;
4057;SDS011;2044;48.692;9.020;2023-02-19T10:28:33;0.80;;;0.80;;
4057;SDS011;2044;48.692;9.020;2023-02-19T10:31:01;2.90;;;0.93;;
4057;SDS011;2044;48.692;9.020;2023-02-19T10:33:30;0.70;;;0.70;;
4057;SDS011;2044;48.692;9.020;2023-02-19T10:35:57;1.40;;;1.10;;
4057;SDS011;2044;48.692;9.020;2023-02-19T10:38:26;3.00;;;1.27;;
4057;SDS011;2044;48.692;9.020;2023-02-19T10:40:59;2.10;;;1.10;;
4057;SDS011;2044;48.692;9.020;2023-02-19T10:43:35;1.20;;;1.10;;
4057;SDS011;2044;48.692;9.020;2023-02-19T10:46:05;1.17;;;0.93;;
4057;SDS011;2044;48.692;9.020;2023-02-19T10:48:43;3.10;;;1.10;;
4057;SDS011;2044;48.692;9.020;2023-02-19T10:51:12;1.27;;;0.90;;
4057;SDS011;2044;48.692;9.020;2023-02-19T10:53:46;1.30;;;1.10;;
4057;SDS011;2044;48.692;9.020;2023-02-19T10:56:15;1.27;;;1.10;;
4057;SDS011;2044;48.692;9.020;2023-02-19T10:58:50;1.40;;;1.30;;
4057;SDS011;2044;48.692;9.020;2023-02-19T11:01:18;2.30;;;1.40;;
4057;SDS011;2044;48.692;9.020;2023-02-19T11:03:46;1.60;;;1.50;;
4057;SDS011;2044;48.692;9.020;2023-02-19T11:06:14;1.77;;;1.67;;
4057;SDS011;2044;48.692;9.020;2023-02-19T11:08:54;2.30;;;1.60;;
4057;SDS011;2044;48.692;9.020;2023-02-19T11:11:23;1.60;;;1.50;;
4057;SDS011;2044;48.692;9.020;2023-02-19T11:13:56;1.60;;;1.50;;
4057;SDS011;2044;48.692;9.020;2023-02-19T11:16:35;2.40;;;1.70;;
4057;SDS011;2044;48.692;9.020;2023-02-19T11:19:04;1.60;;;1.50;;
4057;SDS011;2044;48.692;9.020;2023-02-19T11:21:31;2.23;;;2.03;;
4057;SDS011;2044;48.692;9.020;2023-02-19T11:24:00;3.50;;;1.70;;
4057;SDS011;2044;48.692;9.020;2023-02-19T11:26:30;2.77;;;2.07;;
4057;SDS011;2044;48.692;9.020;2023-02-19T11:29:11;2.17;;;2.00;;
4057;SDS011;2044;48.692;9.020;2023-02-19T11:31:43;3.00;;;2.50;;
4057;SDS011;2044;48.692;9.020;2023-02-19T11:34:22;3.17;;;2.57;;
4057;SDS011;2044;48.692;9.020;2023-02-19T11:37:06;1.77;;;1.67;;
4057;SDS011;2044;48.692;9.020;2023-02-19T11:39:35;3.30;;;1.70;;
4057;SDS011;2044;48.692;9.020;2023-02-19T11:42:23;2.20;;;2.10;;
4057;SDS011;2044;48.692;9.020;2023-02-19T11:45:05;3.60;;;2.60;;
4057;SDS011;2044;48.692;9.020;2023-02-19T11:47:48;3.73;;;2.30;;
4057;SDS011;2044;48.692;9.020;2023-02-19T11:50:43;4.90;;;2.63;;
4057;SDS011;2044;48.692;9.020;2023-02-19T11:53:19;2.50;;;2.40;;
4057;SDS011;2044;48.692;9.020;2023-02-19T11:55:53;4.67;;;2.20;;
4057;SDS011;2044;48.692;9.020;2023-02-19T11:58:35;2.17;;;2.03;;
4057;SDS011;2044;48.692;9.020;2023-02-19T12:01:20;3.30;;;3.00;;
4057;SDS011;2044;48.692;9.020;2023-02-19T12:06:41;4.00;;;3.20;;
4057;SDS011;2044;48.692;9.020;2023-02-19T12:09:29;3.37;;;2.40;;
4057;SDS011;2044;48.692;9.020;2023-02-19T12:12:20;2.50;;;2.30;;
4057;SDS011;2044;48.692;9.020;2023-02-19T12:14:56;2.90;;;2.70;;
4057;SDS011;2044;48.692;9.020;2023-02-19T12:17:42;3.47;;;2.53;;
4057;SDS011;2044;48.692;9.020;2023-02-19T12:20:24;3.10;;;2.87;;
4057;SDS011;2044;48.692;9.020;2023-02-19T12:22:59;3.13;;;2.70;;
4057;SDS011;2044;48.692;9.020;2023-02-19T12:25:51;3.30;;;3.20;;
4057;SDS011;2044;48.692;9.020;2023-02-19T12:28:30;7.47;;;5.10;;
4057;SDS011;2044;48.692;9.020;2023-02-19T12:31:23;6.30;;;3.40;;
4057;SDS011;2044;48.692;9.020;2023-02-19T12:34:15;3.17;;;3.07;;
4057;SDS011;2044;48.692;9.020;2023-02-19T12:36:55;3.27;;;3.17;;
4057;SDS011;2044;48.692;9.020;2023-02-19T12:39:33;2.77;;;2.67;;
4057;SDS011;2044;48.692;9.020;2023-02-19T12:42:09;4.17;;;3.90;;
4057;SDS011;2044;48.692;9.020;2023-02-19T12:44:45;3.57;;;3.37;;
4057;SDS011;2044;48.692;9.020;2023-02-19T12:47:17;3.83;;;3.73;;
4057;SDS011;2044;48.692;9.020;2023-02-19T12:49:48;3.43;;;3.33;;
4057;SDS011;2044;48.692;9.020;2023-02-19T12:52:21;4.47;;;4.17;;
4057;SDS011;2044;48.692;9.020;2023-02-19T12:54:52;3.80;;;3.60;;
4057;SDS011;2044;48.692;9.020;2023-02-19T12:57:20;3.70;;;3.40;;
4057;SDS011;2044;48.692;9.020;2023-02-19T12:59:52;4.30;;;3.90;;
4057;SDS011;2044;48.692;9.020;2023-02-19T13:02:28;3.20;;;3.10;;
4057;SDS011;2044;48.692;9.020;2023-02-19T13:05:04;4.07;;;3.97;;
4057;SDS011;2044;48.692;9.020;2023-02-19T13:07:43;4.97;;;4.60;;
4057;SDS011;2044;48.692;9.020;2023-02-19T13:10:21;4.20;;;4.00;;
4057;SDS011;2044;48.692;9.020;2023-02-19T13:12:53;4.83;;;4.43;;
4057;SDS011;2044;48.692;9.020;2023-02-19T13:15:28;4.07;;;3.97;;
4057;SDS011;2044;48.692;9.020;2023-02-19T13:18:01;4.20;;;4.00;;
4057;SDS011;2044;48.692;9.020;2023-02-19T13:20:35;4.67;;;4.47;;
4057;SDS011;2044;48.692;9.020;2023-02-19T13:23:05;4.67;;;4.17;;
4057;SDS011;2044;48.692;9.020;2023-02-19T13:28:54;3.53;;;3.43;;
4057;SDS011;2044;48.692;9.020;2023-02-19T13:31:50;3.57;;;3.47;;
4057;SDS011;2044;48.692;9.020;2023-02-19T13:34:37;4.53;;;4.33;;
4057;SDS011;2044;48.692;9.020;2023-02-19T13:37:14;4.17;;;3.80;;
4057;SDS011;2044;48.692;9.020;2023-02-19T13:39:45;8.90;;;4.00;;
4057;SDS011;2044;48.692;9.020;2023-02-19T13:42:22;4.10;;;3.90;;
4057;SDS011;2044;48.692;9.020;2023-02-19T13:44:51;4.33;;;4.00;;
4057;SDS011;2044;48.692;9.020;2023-02-19T13:50:23;4.07;;;3.37;;
4057;SDS011;2044;48.692;9.020;2023-02-19T13:52:55;4.20;;;4.00;;
4057;SDS011;2044;48.692;9.020;2023-02-19T14:01:18;3.00;;;2.80;;
4057;SDS011;2044;48.692;9.020;2023-02-19T14:03:47;3.97;;;3.77;;
4057;SDS011;2044;48.692;9.020;2023-02-19T14:06:22;3.90;;;3.70;;
4057;SDS011;2044;48.692;9.020;2023-02-19T14:08:53;3.87;;;3.77;;
4057;SDS011;2044;48.692;9.020;2023-02-19T14:14:32;3.50;;;3.40;;
4057;SDS011;2044;48.692;9.020;2023-02-19T14:17:01;3.70;;;3.60;;
4057;SDS011;2044;48.692;9.020;2023-02-19T14:19:42;3.90;;;3.70;;
4057;SDS011;2044;48.692;9.020;2023-02-19T14:28:16;3.20;;;3.10;;
4057;SDS011;2044;48.692;9.020;2023-02-19T14:30:48;2.93;;;2.73;;
4057;SDS011;2044;48.692;9.020;2023-02-19T14:33:18;2.77;;;2.67;;
4057;SDS011;2044;48.692;9.020;2023-02-19T14:35:50;3.20;;;3.00;;
4057;SDS011;2044;48.692;9.020;2023-02-19T14:38:20;2.77;;;2.67;;
4057;SDS011;2044;48.692;9.020;2023-02-19T14:40:51;3.07;;;2.97;;
4057;SDS011;2044;48.692;9.020;2023-02-19T14:43:21;3.33;;;3.13;;
4057;SDS011;2044;48.692;9.020;2023-02-19T14:45:54;3.17;;;3.00;;
4057;SDS011;2044;48.692;9.020;2023-02-19T14:48:26;2.67;;;2.47;;
4057;SDS011;2044;48.692;9.020;2023-02-19T14:50:57;2.83;;;2.63;;
4057;SDS011;2044;48.692;9.020;2023-02-19T14:53:28;2.70;;;2.50;;
4057;SDS011;2044;48.692;9.020;2023-02-19T14:55:58;2.47;;;2.37;;
4057;SDS011;2044;48.692;9.020;2023-02-19T14:58:27;2.90;;;2.73;;
4057;SDS011;2044;48.692;9.020;2023-02-19T15:00:57;4.63;;;3.10;;
4057;SDS011;2044;48.692;9.020;2023-02-19T15:03:27;3.57;;;2.70;;
4057;SDS011;2044;48.692;9.020;2023-02-19T15:05:58;2.20;;;2.10;;
4057;SDS011;2044;48.692;9.020;2023-02-19T15:08:30;2.73;;;2.40;;
4057;SDS011;2044;48.692;9.020;2023-02-19T15:11:06;2.70;;;2.57;;
4057;SDS011;2044;48.692;9.020;2023-02-19T15:13:35;4.83;;;3.10;;
4057;SDS011;2044;48.692;9.020;2023-02-19T15:16:03;2.30;;;2.13;;
4057;SDS011;2044;48.692;9.020;2023-02-19T15:18:34;2.20;;;1.73;;
4057;SDS011;2044;48.692;9.020;2023-02-19T15:21:04;1.87;;;1.77;;
4057;SDS011;2044;48.692;9.020;2023-02-19T15:23:32;3.67;;;1.70;;
4057;SDS011;2044;48.692;9.020;2023-02-19T15:26:21;2.17;;;1.97;;
4057;SDS011;2044;48.692;9.020;2023-02-19T15:28:56;1.13;;;1.13;;
4057;SDS011;2044;48.692;9.020;2023-02-19T15:31:24;3.43;;;1.90;;
4057;SDS011;2044;48.692;9.020;2023-02-19T15:33:56;2.20;;;1.53;;
4057;SDS011;2044;48.692;9.020;2023-02-19T15:36:25;1.40;;;1.30;;
4057;SDS011;2044;48.692;9.020;2023-02-19T15:38:55;1.90;;;1.70;;
4057;SDS011;2044;48.692;9.020;2023-02-19T15:41:25;3.20;;;1.90;;
4057;SDS011;2044;48.692;9.020;2023-02-19T15:43:59;1.77;;;1.43;;
4057;SDS011;2044;48.692;9.020;2023-02-19T15:46:33;1.90;;;1.80;;
4057;SDS011;2044;48.692;9.020;2023-02-19T15:49:02;4.00;;;1.90;;
4057;SDS011;2044;48.692;9.020;2023-02-19T15:51:35;2.87;;;1.70;;
4057;SDS011;2044;48.692;9.020;2023-02-19T15:54:06;3.73;;;1.60;;
4057;SDS011;2044;48.692;9.020;2023-02-19T15:56:43;3.03;;;1.87;;
4057;SDS011;2044;48.692;9.020;2023-02-19T15:59:16;6.50;;;2.30;;
4057;SDS011;2044;48.692;9.020;2023-02-19T16:01:49;3.13;;;1.80;;
4057;SDS011;2044;48.692;9.020;2023-02-19T16:04:17;1.97;;;1.20;;
4057;SDS011;2044;48.692;9.020;2023-02-19T16:06:51;3.33;;;1.60;;
4057;SDS011;2044;48.692;9.020;2023-02-19T16:09:21;3.60;;;1.97;;
4057;SDS011;2044;48.692;9.020;2023-02-19T16:11:51;3.97;;;2.37;;
4057;SDS011;2044;48.692;9.020;2023-02-19T16:14:23;6.00;;;1.97;;